Terminal Aerodrome Forecast
Issued by NWS

Home | Current Version | Previous Version | Text Only | Print | Product List | Glossary On
Versions: 1 2 3 4 5 6 7 8 9 10 11 12 13 14 15 16 17 18 19 20 21 22 23 24 25 26 27
000
FTUS46 KPDT 201134
TAFDLS
TAF
KDLS 201134Z 2012/2112 29006KT P6SM SKC
     FM202100 30014G25KT P6SM FEW060 OVC100
     FM210000 30020G30KT P6SM FEW050 OVC100
     FM210300 30015G25KT P6SM FEW100=

USA.gov is the U.S. government's official web portal to all federal, state and local government web resources and services.